sensor_id;sensor_type;location;lat;lon;timestamp;temperature;humidity
77693;SHT31;66984;47.404;18.836;2023-05-14T00:00:28;13.58;74.17
77693;SHT31;66984;47.404;18.836;2023-05-14T00:01:31;13.54;74.55
77693;SHT31;66984;47.404;18.836;2023-05-14T00:02:34;13.51;74.49
77693;SHT31;66984;47.404;18.836;2023-05-14T00:03:37;13.46;74.45
77693;SHT31;66984;47.404;18.836;2023-05-14T00:04:41;13.47;74.76
77693;SHT31;66984;47.404;18.836;2023-05-14T00:05:44;13.47;74.62
77693;SHT31;66984;47.404;18.836;2023-05-14T00:06:47;13.46;74.83
77693;SHT31;66984;47.404;18.836;2023-05-14T00:07:50;13.42;75.22
77693;SHT31;66984;47.404;18.836;2023-05-14T00:08:53;13.39;75.48
77693;SHT31;66984;47.404;18.836;2023-05-14T00:09:58;13.36;75.41
77693;SHT31;66984;47.404;18.836;2023-05-14T00:11:01;13.35;75.53
77693;SHT31;66984;47.404;18.836;2023-05-14T00:12:04;13.30;75.44
77693;SHT31;66984;47.404;18.836;2023-05-14T00:13:07;13.24;75.84
77693;SHT31;66984;47.404;18.836;2023-05-14T00:14:10;13.26;75.75
77693;SHT31;66984;47.404;18.836;2023-05-14T00:15:13;13.24;75.67
77693;SHT31;66984;47.404;18.836;2023-05-14T00:16:16;13.23;75.65
77693;SHT31;66984;47.404;18.836;2023-05-14T00:17:19;13.20;75.62
77693;SHT31;66984;47.404;18.836;2023-05-14T00:18:22;13.19;75.69
77693;SHT31;66984;47.404;18.836;2023-05-14T00:19:25;13.17;75.74
77693;SHT31;66984;47.404;18.836;2023-05-14T00:20:28;13.20;75.69
77693;SHT31;66984;47.404;18.836;2023-05-14T00:21:31;13.19;75.56
77693;SHT31;66984;47.404;18.836;2023-05-14T00:22:33;13.17;75.65
77693;SHT31;66984;47.404;18.836;2023-05-14T00:23:40;13.19;75.55
77693;SHT31;66984;47.404;18.836;2023-05-14T00:24:43;13.22;75.46
77693;SHT31;66984;47.404;18.836;2023-05-14T00:25:46;13.20;75.31
77693;SHT31;66984;47.404;18.836;2023-05-14T00:26:49;13.19;75.59
77693;SHT31;66984;47.404;18.836;2023-05-14T00:27:51;13.13;75.61
77693;SHT31;66984;47.404;18.836;2023-05-14T00:28:54;13.15;75.27
77693;SHT31;66984;47.404;18.836;2023-05-14T00:29:57;13.16;75.53
77693;SHT31;66984;47.404;18.836;2023-05-14T00:31:00;13.19;75.26
77693;SHT31;66984;47.404;18.836;2023-05-14T00:32:03;13.17;75.52
77693;SHT31;66984;47.404;18.836;2023-05-14T00:33:06;13.20;75.29
77693;SHT31;66984;47.404;18.836;2023-05-14T00:34:09;13.20;75.35
77693;SHT31;66984;47.404;18.836;2023-05-14T00:35:12;13.20;75.14
77693;SHT31;66984;47.404;18.836;2023-05-14T00:36:15;13.19;75.18
77693;SHT31;66984;47.404;18.836;2023-05-14T00:37:18;13.20;75.26
77693;SHT31;66984;47.404;18.836;2023-05-14T00:38:21;13.16;75.62
77693;SHT31;66984;47.404;18.836;2023-05-14T00:39:25;13.17;75.54
77693;SHT31;66984;47.404;18.836;2023-05-14T00:40:28;13.13;75.73
77693;SHT31;66984;47.404;18.836;2023-05-14T00:41:31;13.19;75.81
77693;SHT31;66984;47.404;18.836;2023-05-14T00:42:34;13.15;76.06
77693;SHT31;66984;47.404;18.836;2023-05-14T00:43:37;13.12;76.17
77693;SHT31;66984;47.404;18.836;2023-05-14T00:44:40;13.03;76.08
77693;SHT31;66984;47.404;18.836;2023-05-14T00:45:43;13.05;76.03
77693;SHT31;66984;47.404;18.836;2023-05-14T00:46:46;13.03;76.30
77693;SHT31;66984;47.404;18.836;2023-05-14T00:47:50;13.05;76.24
77693;SHT31;66984;47.404;18.836;2023-05-14T00:48:53;13.09;76.25
77693;SHT31;66984;47.404;18.836;2023-05-14T00:49:57;13.08;76.07
77693;SHT31;66984;47.404;18.836;2023-05-14T00:50:59;13.06;76.23
77693;SHT31;66984;47.404;18.836;2023-05-14T00:52:03;13.05;76.04
77693;SHT31;66984;47.404;18.836;2023-05-14T00:53:06;13.03;76.23
77693;SHT31;66984;47.404;18.836;2023-05-14T00:54:13;13.02;76.37
77693;SHT31;66984;47.404;18.836;2023-05-14T00:55:17;13.03;75.83
77693;SHT31;66984;47.404;18.836;2023-05-14T00:56:21;13.05;75.85
77693;SHT31;66984;47.404;18.836;2023-05-14T00:57:24;13.06;76.02
77693;SHT31;66984;47.404;18.836;2023-05-14T00:58:27;13.02;75.98
77693;SHT31;66984;47.404;18.836;2023-05-14T00:59:30;12.93;75.71
77693;SHT31;66984;47.404;18.836;2023-05-14T01:00:34;12.95;75.72
77693;SHT31;66984;47.404;18.836;2023-05-14T01:01:37;12.96;75.71
77693;SHT31;66984;47.404;18.836;2023-05-14T01:02:40;12.93;75.67
77693;SHT31;66984;47.404;18.836;2023-05-14T01:03:44;12.89;75.85
77693;SHT31;66984;47.404;18.836;2023-05-14T01:04:47;12.92;75.90
77693;SHT31;66984;47.404;18.836;2023-05-14T01:10:20;12.92;75.57
77693;SHT31;66984;47.404;18.836;2023-05-14T01:11:38;12.89;75.47
77693;SHT31;66984;47.404;18.836;2023-05-14T01:12:55;12.84;75.58
77693;SHT31;66984;47.404;18.836;2023-05-14T01:14:19;12.84;75.31
77693;SHT31;66984;47.404;18.836;2023-05-14T01:15:27;12.82;75.44
77693;SHT31;66984;47.404;18.836;2023-05-14T01:16:32;12.82;75.57
77693;SHT31;66984;47.404;18.836;2023-05-14T01:17:40;12.85;75.72
77693;SHT31;66984;47.404;18.836;2023-05-14T01:18:45;12.79;75.61
77693;SHT31;66984;47.404;18.836;2023-05-14T01:19:50;12.79;75.51
77693;SHT31;66984;47.404;18.836;2023-05-14T01:20:54;12.81;75.66
77693;SHT31;66984;47.404;18.836;2023-05-14T01:21:57;12.81;75.58
77693;SHT31;66984;47.404;18.836;2023-05-14T01:23:00;12.81;75.41
77693;SHT31;66984;47.404;18.836;2023-05-14T01:24:03;12.81;75.10
77693;SHT31;66984;47.404;18.836;2023-05-14T01:25:06;12.85;75.13
77693;SHT31;66984;47.404;18.836;2023-05-14T01:26:09;12.84;75.26
77693;SHT31;66984;47.404;18.836;2023-05-14T01:27:44;12.82;75.18
77693;SHT31;66984;47.404;18.836;2023-05-14T01:28:50;12.81;75.03
77693;SHT31;66984;47.404;18.836;2023-05-14T01:30:04;12.82;75.01
77693;SHT31;66984;47.404;18.836;2023-05-14T01:31:15;12.79;74.92
77693;SHT31;66984;47.404;18.836;2023-05-14T01:32:21;12.75;75.30
77693;SHT31;66984;47.404;18.836;2023-05-14T01:33:28;12.74;75.20
77693;SHT31;66984;47.404;18.836;2023-05-14T01:34:31;12.75;75.23
77693;SHT31;66984;47.404;18.836;2023-05-14T01:35:36;12.71;75.30
77693;SHT31;66984;47.404;18.836;2023-05-14T01:36:40;12.67;75.48
77693;SHT31;66984;47.404;18.836;2023-05-14T01:37:44;12.67;75.26
77693;SHT31;66984;47.404;18.836;2023-05-14T01:38:49;12.65;75.51
77693;SHT31;66984;47.404;18.836;2023-05-14T01:39:54;12.64;75.45
77693;SHT31;66984;47.404;18.836;2023-05-14T01:40:59;12.62;75.52
77693;SHT31;66984;47.404;18.836;2023-05-14T01:42:03;12.64;75.24
77693;SHT31;66984;47.404;18.836;2023-05-14T01:43:06;12.61;75.56
77693;SHT31;66984;47.404;18.836;2023-05-14T01:44:10;12.59;75.45
77693;SHT31;66984;47.404;18.836;2023-05-14T01:45:13;12.57;75.59
77693;SHT31;66984;47.404;18.836;2023-05-14T01:46:18;12.55;75.74
77693;SHT31;66984;47.404;18.836;2023-05-14T01:47:21;12.61;75.56
77693;SHT31;66984;47.404;18.836;2023-05-14T01:48:24;12.62;75.55
77693;SHT31;66984;47.404;18.836;2023-05-14T01:49:27;12.62;75.55
77693;SHT31;66984;47.404;18.836;2023-05-14T01:50:30;12.67;75.49
77693;SHT31;66984;47.404;18.836;2023-05-14T01:51:33;12.69;75.37
77693;SHT31;66984;47.404;18.836;2023-05-14T01:52:36;12.65;75.30
77693;SHT31;66984;47.404;18.836;2023-05-14T01:53:39;12.65;75.42
77693;SHT31;66984;47.404;18.836;2023-05-14T01:54:42;12.64;75.42
77693;SHT31;66984;47.404;18.836;2023-05-14T01:55:44;12.67;75.39
77693;SHT31;66984;47.404;18.836;2023-05-14T01:56:47;12.61;75.52
77693;SHT31;66984;47.404;18.836;2023-05-14T01:57:51;12.64;75.55
77693;SHT31;66984;47.404;18.836;2023-05-14T01:58:54;12.64;75.44
77693;SHT31;66984;47.404;18.836;2023-05-14T01:59:58;12.67;75.23
77693;SHT31;66984;47.404;18.836;2023-05-14T02:01:01;12.71;75.26
77693;SHT31;66984;47.404;18.836;2023-05-14T02:02:04;12.71;75.38
77693;SHT31;66984;47.404;18.836;2023-05-14T02:03:07;12.72;75.06
77693;SHT31;66984;47.404;18.836;2023-05-14T02:04:10;12.71;75.12
77693;SHT31;66984;47.404;18.836;2023-05-14T02:05:13;12.72;74.87
77693;SHT31;66984;47.404;18.836;2023-05-14T02:06:16;12.68;74.76
77693;SHT31;66984;47.404;18.836;2023-05-14T02:07:18;12.71;74.94
77693;SHT31;66984;47.404;18.836;2023-05-14T02:08:21;12.74;74.94
77693;SHT31;66984;47.404;18.836;2023-05-14T02:09:24;12.71;74.96
77693;SHT31;66984;47.404;18.836;2023-05-14T02:10:27;12.75;74.98
77693;SHT31;66984;47.404;18.836;2023-05-14T02:11:30;12.72;74.90
77693;SHT31;66984;47.404;18.836;2023-05-14T02:12:33;12.72;74.80
77693;SHT31;66984;47.404;18.836;2023-05-14T02:13:35;12.72;74.90
77693;SHT31;66984;47.404;18.836;2023-05-14T02:14:38;12.77;74.89
77693;SHT31;66984;47.404;18.836;2023-05-14T02:15:41;12.77;74.72
77693;SHT31;66984;47.404;18.836;2023-05-14T02:16:44;12.77;74.71
77693;SHT31;66984;47.404;18.836;2023-05-14T02:17:47;12.77;74.60
77693;SHT31;66984;47.404;18.836;2023-05-14T02:18:50;12.77;74.11
77693;SHT31;66984;47.404;18.836;2023-05-14T02:19:53;12.77;74.33
77693;SHT31;66984;47.404;18.836;2023-05-14T02:20:56;12.81;74.24
77693;SHT31;66984;47.404;18.836;2023-05-14T02:21:59;12.84;74.17
77693;SHT31;66984;47.404;18.836;2023-05-14T02:23:02;12.82;74.42
77693;SHT31;66984;47.404;18.836;2023-05-14T02:24:05;12.82;74.23
77693;SHT31;66984;47.404;18.836;2023-05-14T02:25:09;12.84;74.27
77693;SHT31;66984;47.404;18.836;2023-05-14T02:26:12;12.82;74.32
77693;SHT31;66984;47.404;18.836;2023-05-14T02:27:15;12.79;74.23
77693;SHT31;66984;47.404;18.836;2023-05-14T02:28:18;12.79;74.22
77693;SHT31;66984;47.404;18.836;2023-05-14T02:29:21;12.79;74.39
77693;SHT31;66984;47.404;18.836;2023-05-14T02:30:24;12.79;74.31
77693;SHT31;66984;47.404;18.836;2023-05-14T02:31:27;12.82;74.23
77693;SHT31;66984;47.404;18.836;2023-05-14T02:32:30;12.82;73.99
77693;SHT31;66984;47.404;18.836;2023-05-14T02:33:33;12.81;74.05
77693;SHT31;66984;47.404;18.836;2023-05-14T02:34:35;12.85;73.98
77693;SHT31;66984;47.404;18.836;2023-05-14T02:35:38;12.87;73.85
77693;SHT31;66984;47.404;18.836;2023-05-14T02:36:41;12.84;73.61
77693;SHT31;66984;47.404;18.836;2023-05-14T02:37:44;12.82;73.75
77693;SHT31;66984;47.404;18.836;2023-05-14T02:38:47;12.89;73.73
77693;SHT31;66984;47.404;18.836;2023-05-14T02:39:50;12.92;73.89
77693;SHT31;66984;47.404;18.836;2023-05-14T02:40:53;12.92;73.35
77693;SHT31;66984;47.404;18.836;2023-05-14T02:41:56;12.92;73.73
77693;SHT31;66984;47.404;18.836;2023-05-14T02:42:59;12.91;73.68
77693;SHT31;66984;47.404;18.836;2023-05-14T02:44:02;12.89;73.42
77693;SHT31;66984;47.404;18.836;2023-05-14T02:45:05;12.91;73.58
77693;SHT31;66984;47.404;18.836;2023-05-14T02:46:08;12.92;73.59
77693;SHT31;66984;47.404;18.836;2023-05-14T02:47:11;12.92;73.51
77693;SHT31;66984;47.404;18.836;2023-05-14T02:48:14;12.93;73.60
77693;SHT31;66984;47.404;18.836;2023-05-14T02:49:17;12.93;73.64
77693;SHT31;66984;47.404;18.836;2023-05-14T02:50:20;12.96;73.66
77693;SHT31;66984;47.404;18.836;2023-05-14T02:51:23;12.98;73.68
77693;SHT31;66984;47.404;18.836;2023-05-14T02:52:26;12.98;73.70
77693;SHT31;66984;47.404;18.836;2023-05-14T02:53:29;12.98;73.69
77693;SHT31;66984;47.404;18.836;2023-05-14T02:54:31;12.98;73.93
77693;SHT31;66984;47.404;18.836;2023-05-14T02:55:35;12.96;74.25
77693;SHT31;66984;47.404;18.836;2023-05-14T02:56:38;12.89;74.36
77693;SHT31;66984;47.404;18.836;2023-05-14T02:57:40;12.89;74.52
77693;SHT31;66984;47.404;18.836;2023-05-14T02:58:43;12.88;74.84
77693;SHT31;66984;47.404;18.836;2023-05-14T02:59:46;12.87;74.60
77693;SHT31;66984;47.404;18.836;2023-05-14T03:00:50;12.87;74.70
77693;SHT31;66984;47.404;18.836;2023-05-14T03:01:53;12.84;75.02
77693;SHT31;66984;47.404;18.836;2023-05-14T03:02:57;12.84;75.19
77693;SHT31;66984;47.404;18.836;2023-05-14T03:04:00;12.78;75.21
77693;SHT31;66984;47.404;18.836;2023-05-14T03:05:03;12.74;75.32
77693;SHT31;66984;47.404;18.836;2023-05-14T03:06:06;12.75;75.48
77693;SHT31;66984;47.404;18.836;2023-05-14T03:07:09;12.74;75.54
77693;SHT31;66984;47.404;18.836;2023-05-14T03:08:12;12.81;75.50
77693;SHT31;66984;47.404;18.836;2023-05-14T03:09:15;12.77;75.56
77693;SHT31;66984;47.404;18.836;2023-05-14T03:10:18;12.81;75.47
77693;SHT31;66984;47.404;18.836;2023-05-14T03:11:22;12.79;75.14
77693;SHT31;66984;47.404;18.836;2023-05-14T03:12:25;12.75;75.26
77693;SHT31;66984;47.404;18.836;2023-05-14T03:13:28;12.75;75.34
77693;SHT31;66984;47.404;18.836;2023-05-14T03:14:31;12.78;75.34
77693;SHT31;66984;47.404;18.836;2023-05-14T03:15:34;12.72;75.35
77693;SHT31;66984;47.404;18.836;2023-05-14T03:16:37;12.74;75.40
77693;SHT31;66984;47.404;18.836;2023-05-14T03:17:41;12.71;75.74
77693;SHT31;66984;47.404;18.836;2023-05-14T03:18:44;12.72;75.63
77693;SHT31;66984;47.404;18.836;2023-05-14T03:19:47;12.68;75.72
77693;SHT31;66984;47.404;18.836;2023-05-14T03:20:50;12.68;75.48
77693;SHT31;66984;47.404;18.836;2023-05-14T03:21:53;12.72;75.25
77693;SHT31;66984;47.404;18.836;2023-05-14T03:22:56;12.75;75.20
77693;SHT31;66984;47.404;18.836;2023-05-14T03:23:59;12.74;75.21
77693;SHT31;66984;47.404;18.836;2023-05-14T03:25:01;12.71;75.01
77693;SHT31;66984;47.404;18.836;2023-05-14T03:26:04;12.74;75.13
77693;SHT31;66984;47.404;18.836;2023-05-14T03:27:07;12.72;75.11
77693;SHT31;66984;47.404;18.836;2023-05-14T03:28:10;12.75;74.90
77693;SHT31;66984;47.404;18.836;2023-05-14T03:29:13;12.77;75.14
77693;SHT31;66984;47.404;18.836;2023-05-14T03:30:19;12.74;75.17
77693;SHT31;66984;47.404;18.836;2023-05-14T03:31:22;12.75;75.21
77693;SHT31;66984;47.404;18.836;2023-05-14T03:32:25;12.75;75.38
77693;SHT31;66984;47.404;18.836;2023-05-14T03:33:28;12.78;75.19
77693;SHT31;66984;47.404;18.836;2023-05-14T03:34:31;12.78;74.74
77693;SHT31;66984;47.404;18.836;2023-05-14T03:35:34;12.75;74.88
77693;SHT31;66984;47.404;18.836;2023-05-14T03:36:37;12.81;74.78
77693;SHT31;66984;47.404;18.836;2023-05-14T03:37:41;12.78;74.92
77693;SHT31;66984;47.404;18.836;2023-05-14T03:38:44;12.78;74.44
77693;SHT31;66984;47.404;18.836;2023-05-14T03:39:46;12.78;74.72
77693;SHT31;66984;47.404;18.836;2023-05-14T03:40:49;12.78;74.74
77693;SHT31;66984;47.404;18.836;2023-05-14T03:41:52;12.77;74.33
77693;SHT31;66984;47.404;18.836;2023-05-14T03:42:55;12.78;74.33
77693;SHT31;66984;47.404;18.836;2023-05-14T03:43:58;12.81;74.42
77693;SHT31;66984;47.404;18.836;2023-05-14T03:45:01;12.79;74.40
77693;SHT31;66984;47.404;18.836;2023-05-14T03:46:04;12.84;74.29
77693;SHT31;66984;47.404;18.836;2023-05-14T03:47:07;12.87;74.11
77693;SHT31;66984;47.404;18.836;2023-05-14T03:48:09;12.81;73.84
77693;SHT31;66984;47.404;18.836;2023-05-14T03:49:12;12.82;73.85
77693;SHT31;66984;47.404;18.836;2023-05-14T03:50:15;12.85;73.93
77693;SHT31;66984;47.404;18.836;2023-05-14T03:51:18;12.85;74.10
77693;SHT31;66984;47.404;18.836;2023-05-14T03:52:21;12.87;73.72
77693;SHT31;66984;47.404;18.836;2023-05-14T03:53:24;12.84;73.51
77693;SHT31;66984;47.404;18.836;2023-05-14T03:54:27;12.84;73.46
77693;SHT31;66984;47.404;18.836;2023-05-14T03:55:30;12.82;73.25
77693;SHT31;66984;47.404;18.836;2023-05-14T03:56:33;12.84;73.28
77693;SHT31;66984;47.404;18.836;2023-05-14T03:57:36;12.87;73.22
77693;SHT31;66984;47.404;18.836;2023-05-14T03:58:39;12.84;73.11
77693;SHT31;66984;47.404;18.836;2023-05-14T03:59:42;12.84;73.10
77693;SHT31;66984;47.404;18.836;2023-05-14T04:00:45;12.82;72.76
77693;SHT31;66984;47.404;18.836;2023-05-14T04:01:49;12.87;72.69
77693;SHT31;66984;47.404;18.836;2023-05-14T04:02:52;12.85;72.73
77693;SHT31;66984;47.404;18.836;2023-05-14T04:03:55;12.87;72.74
77693;SHT31;66984;47.404;18.836;2023-05-14T04:04:58;12.88;72.74
77693;SHT31;66984;47.404;18.836;2023-05-14T04:06:01;12.93;72.68
77693;SHT31;66984;47.404;18.836;2023-05-14T04:07:04;12.91;72.52
77693;SHT31;66984;47.404;18.836;2023-05-14T04:08:07;12.92;72.47
77693;SHT31;66984;47.404;18.836;2023-05-14T04:09:09;12.89;72.50
77693;SHT31;66984;47.404;18.836;2023-05-14T04:10:12;12.93;72.54
77693;SHT31;66984;47.404;18.836;2023-05-14T04:11:15;12.93;72.31
77693;SHT31;66984;47.404;18.836;2023-05-14T04:12:18;12.96;72.48
77693;SHT31;66984;47.404;18.836;2023-05-14T04:13:21;12.96;72.55
77693;SHT31;66984;47.404;18.836;2023-05-14T04:14:24;12.98;72.52
77693;SHT31;66984;47.404;18.836;2023-05-14T04:15:27;12.93;72.39
77693;SHT31;66984;47.404;18.836;2023-05-14T04:16:30;12.95;72.42
77693;SHT31;66984;47.404;18.836;2023-05-14T04:17:33;12.95;72.41
77693;SHT31;66984;47.404;18.836;2023-05-14T04:18:36;12.95;72.29
77693;SHT31;66984;47.404;18.836;2023-05-14T04:19:39;12.95;72.17
77693;SHT31;66984;47.404;18.836;2023-05-14T04:20:42;12.95;72.25
77693;SHT31;66984;47.404;18.836;2023-05-14T04:21:44;12.96;72.25
77693;SHT31;66984;47.404;18.836;2023-05-14T04:22:47;12.95;72.10
77693;SHT31;66984;47.404;18.836;2023-05-14T04:23:50;12.95;72.34
77693;SHT31;66984;47.404;18.836;2023-05-14T04:24:53;12.95;72.13
77693;SHT31;66984;47.404;18.836;2023-05-14T04:25:56;12.93;72.16
77693;SHT31;66984;47.404;18.836;2023-05-14T04:26:59;12.93;72.51
77693;SHT31;66984;47.404;18.836;2023-05-14T04:28:02;12.95;72.37
77693;SHT31;66984;47.404;18.836;2023-05-14T04:29:05;12.93;72.09
77693;SHT31;66984;47.404;18.836;2023-05-14T04:30:08;12.89;72.20
77693;SHT31;66984;47.404;18.836;2023-05-14T04:31:12;12.95;72.19
77693;SHT31;66984;47.404;18.836;2023-05-14T04:32:15;12.91;72.32
77693;SHT31;66984;47.404;18.836;2023-05-14T04:33:19;12.92;72.18
77693;SHT31;66984;47.404;18.836;2023-05-14T04:34:21;12.91;71.83
77693;SHT31;66984;47.404;18.836;2023-05-14T04:35:24;12.88;71.90
77693;SHT31;66984;47.404;18.836;2023-05-14T04:36:27;12.92;71.98
77693;SHT31;66984;47.404;18.836;2023-05-14T04:37:30;12.89;72.00
77693;SHT31;66984;47.404;18.836;2023-05-14T04:38:33;12.91;72.08
77693;SHT31;66984;47.404;18.836;2023-05-14T04:39:36;12.89;72.11
77693;SHT31;66984;47.404;18.836;2023-05-14T04:40:40;12.89;72.34
77693;SHT31;66984;47.404;18.836;2023-05-14T04:41:43;12.91;72.14
77693;SHT31;66984;47.404;18.836;2023-05-14T04:42:45;12.92;72.06
77693;SHT31;66984;47.404;18.836;2023-05-14T04:43:49;12.91;72.09
77693;SHT31;66984;47.404;18.836;2023-05-14T04:44:52;12.93;72.05
77693;SHT31;66984;47.404;18.836;2023-05-14T04:45:55;12.93;72.05
77693;SHT31;66984;47.404;18.836;2023-05-14T04:46:58;12.93;72.06
77693;SHT31;66984;47.404;18.836;2023-05-14T04:48:02;12.95;71.96
77693;SHT31;66984;47.404;18.836;2023-05-14T04:49:05;12.93;72.23
77693;SHT31;66984;47.404;18.836;2023-05-14T04:50:08;12.88;72.18
77693;SHT31;66984;47.404;18.836;2023-05-14T04:51:11;12.88;72.42
77693;SHT31;66984;47.404;18.836;2023-05-14T04:52:15;12.91;72.44
77693;SHT31;66984;47.404;18.836;2023-05-14T04:53:18;12.93;72.57
77693;SHT31;66984;47.404;18.836;2023-05-14T04:54:21;12.96;72.66
77693;SHT31;66984;47.404;18.836;2023-05-14T04:55:24;12.96;72.52
77693;SHT31;66984;47.404;18.836;2023-05-14T04:56:27;12.93;72.53
77693;SHT31;66984;47.404;18.836;2023-05-14T04:57:30;12.95;72.70
77693;SHT31;66984;47.404;18.836;2023-05-14T04:58:33;12.92;72.73
77693;SHT31;66984;47.404;18.836;2023-05-14T04:59:36;12.89;72.93
77693;SHT31;66984;47.404;18.836;2023-05-14T05:00:39;12.89;72.88
77693;SHT31;66984;47.404;18.836;2023-05-14T05:01:42;12.91;73.04
77693;SHT31;66984;47.404;18.836;2023-05-14T05:02:45;12.95;73.32
77693;SHT31;66984;47.404;18.836;2023-05-14T05:03:48;13.02;73.32
77693;SHT31;66984;47.404;18.836;2023-05-14T05:04:51;13.02;73.29
77693;SHT31;66984;47.404;18.836;2023-05-14T05:05:54;13.00;73.21
77693;SHT31;66984;47.404;18.836;2023-05-14T05:06:57;13.02;73.34
77693;SHT31;66984;47.404;18.836;2023-05-14T05:07:59;13.00;73.22
77693;SHT31;66984;47.404;18.836;2023-05-14T05:09:02;13.05;73.02
77693;SHT31;66984;47.404;18.836;2023-05-14T05:10:06;13.03;73.03
77693;SHT31;66984;47.404;18.836;2023-05-14T05:11:09;13.03;73.13
77693;SHT31;66984;47.404;18.836;2023-05-14T05:12:12;12.98;73.01
77693;SHT31;66984;47.404;18.836;2023-05-14T05:13:15;12.95;72.95
77693;SHT31;66984;47.404;18.836;2023-05-14T05:14:18;12.96;73.45
77693;SHT31;66984;47.404;18.836;2023-05-14T05:15:21;12.92;73.08
77693;SHT31;66984;47.404;18.836;2023-05-14T05:16:27;12.91;73.24
77693;SHT31;66984;47.404;18.836;2023-05-14T05:17:30;12.95;73.34
77693;SHT31;66984;47.404;18.836;2023-05-14T05:18:33;12.96;73.53
77693;SHT31;66984;47.404;18.836;2023-05-14T05:19:36;12.99;73.40
77693;SHT31;66984;47.404;18.836;2023-05-14T05:20:44;12.93;72.91
77693;SHT31;66984;47.404;18.836;2023-05-14T05:21:47;12.95;72.91
77693;SHT31;66984;47.404;18.836;2023-05-14T05:22:50;12.95;72.90
77693;SHT31;66984;47.404;18.836;2023-05-14T05:23:53;12.96;73.12
77693;SHT31;66984;47.404;18.836;2023-05-14T05:24:56;13.00;73.09
77693;SHT31;66984;47.404;18.836;2023-05-14T05:26:00;12.96;72.93
77693;SHT31;66984;47.404;18.836;2023-05-14T05:27:03;12.95;72.73
77693;SHT31;66984;47.404;18.836;2023-05-14T05:28:07;12.96;72.97
77693;SHT31;66984;47.404;18.836;2023-05-14T05:29:09;12.95;73.16
77693;SHT31;66984;47.404;18.836;2023-05-14T05:30:12;12.98;73.24
77693;SHT31;66984;47.404;18.836;2023-05-14T05:31:15;12.92;72.86
77693;SHT31;66984;47.404;18.836;2023-05-14T05:32:20;12.92;73.05
77693;SHT31;66984;47.404;18.836;2023-05-14T05:33:23;12.93;72.65
77693;SHT31;66984;47.404;18.836;2023-05-14T05:34:26;12.93;73.10
77693;SHT31;66984;47.404;18.836;2023-05-14T05:35:29;12.96;72.87
77693;SHT31;66984;47.404;18.836;2023-05-14T05:36:32;12.98;72.98
77693;SHT31;66984;47.404;18.836;2023-05-14T05:37:35;12.96;72.93
77693;SHT31;66984;47.404;18.836;2023-05-14T05:38:38;12.98;72.65
77693;SHT31;66984;47.404;18.836;2023-05-14T05:39:41;12.98;72.75
77693;SHT31;66984;47.404;18.836;2023-05-14T05:40:44;12.95;72.64
77693;SHT31;66984;47.404;18.836;2023-05-14T05:41:46;12.95;72.56
77693;SHT31;66984;47.404;18.836;2023-05-14T05:42:49;12.95;72.81
77693;SHT31;66984;47.404;18.836;2023-05-14T05:43:52;12.98;72.71
77693;SHT31;66984;47.404;18.836;2023-05-14T05:44:55;12.96;72.34
77693;SHT31;66984;47.404;18.836;2023-05-14T05:45:59;12.98;72.63
77693;SHT31;66984;47.404;18.836;2023-05-14T05:47:02;12.95;72.73
77693;SHT31;66984;47.404;18.836;2023-05-14T05:48:05;12.93;73.03
77693;SHT31;66984;47.404;18.836;2023-05-14T05:49:08;12.92;73.17
77693;SHT31;66984;47.404;18.836;2023-05-14T05:50:11;12.95;73.02
77693;SHT31;66984;47.404;18.836;2023-05-14T05:51:14;12.92;73.11
77693;SHT31;66984;47.404;18.836;2023-05-14T05:52:17;12.91;73.31
77693;SHT31;66984;47.404;18.836;2023-05-14T06:07:13;13.03;73.50
77693;SHT31;66984;47.404;18.836;2023-05-14T06:08:29;13.08;73.48
77693;SHT31;66984;47.404;18.836;2023-05-14T06:09:33;13.05;73.08
77693;SHT31;66984;47.404;18.836;2023-05-14T06:10:36;13.06;73.24
77693;SHT31;66984;47.404;18.836;2023-05-14T06:11:39;13.06;73.48
77693;SHT31;66984;47.404;18.836;2023-05-14T06:12:48;13.08;73.58
77693;SHT31;66984;47.404;18.836;2023-05-14T06:13:51;13.08;73.37
77693;SHT31;66984;47.404;18.836;2023-05-14T06:14:54;13.05;73.98
77693;SHT31;66984;47.404;18.836;2023-05-14T06:15:59;13.03;73.63
77693;SHT31;66984;47.404;18.836;2023-05-14T06:17:02;13.05;73.99
77693;SHT31;66984;47.404;18.836;2023-05-14T06:18:11;13.00;74.29
77693;SHT31;66984;47.404;18.836;2023-05-14T06:19:14;13.00;74.18
77693;SHT31;66984;47.404;18.836;2023-05-14T06:20:18;13.03;74.35
77693;SHT31;66984;47.404;18.836;2023-05-14T06:21:21;13.03;74.94
77693;SHT31;66984;47.404;18.836;2023-05-14T06:22:23;13.05;75.16
77693;SHT31;66984;47.404;18.836;2023-05-14T06:23:33;12.98;75.01
77693;SHT31;66984;47.404;18.836;2023-05-14T06:24:36;12.93;75.24
77693;SHT31;66984;47.404;18.836;2023-05-14T06:25:39;12.93;75.26
77693;SHT31;66984;47.404;18.836;2023-05-14T06:26:42;12.91;75.27
77693;SHT31;66984;47.404;18.836;2023-05-14T06:27:45;12.88;74.97
77693;SHT31;66984;47.404;18.836;2023-05-14T06:28:54;12.85;75.59
77693;SHT31;66984;47.404;18.836;2023-05-14T06:29:57;12.88;75.87
77693;SHT31;66984;47.404;18.836;2023-05-14T06:31:00;12.88;75.98
77693;SHT31;66984;47.404;18.836;2023-05-14T06:32:03;12.85;76.59
77693;SHT31;66984;47.404;18.836;2023-05-14T06:33:06;12.81;76.65
77693;SHT31;66984;47.404;18.836;2023-05-14T06:34:15;12.77;76.87
77693;SHT31;66984;47.404;18.836;2023-05-14T06:35:18;12.77;76.94
77693;SHT31;66984;47.404;18.836;2023-05-14T06:36:21;12.78;77.26
77693;SHT31;66984;47.404;18.836;2023-05-14T06:37:24;12.77;77.21
77693;SHT31;66984;47.404;18.836;2023-05-14T06:38:27;12.78;77.02
77693;SHT31;66984;47.404;18.836;2023-05-14T06:39:37;12.79;77.16
77693;SHT31;66984;47.404;18.836;2023-05-14T06:40:40;12.75;77.00
77693;SHT31;66984;47.404;18.836;2023-05-14T06:41:42;12.75;77.19
77693;SHT31;66984;47.404;18.836;2023-05-14T06:42:45;12.75;77.45
77693;SHT31;66984;47.404;18.836;2023-05-14T06:43:48;12.77;77.36
77693;SHT31;66984;47.404;18.836;2023-05-14T06:44:57;12.75;76.96
77693;SHT31;66984;47.404;18.836;2023-05-14T06:46:00;12.77;77.16
77693;SHT31;66984;47.404;18.836;2023-05-14T06:47:03;12.75;77.50
77693;SHT31;66984;47.404;18.836;2023-05-14T06:48:08;12.74;77.85
77693;SHT31;66984;47.404;18.836;2023-05-14T06:49:11;12.72;77.93
77693;SHT31;66984;47.404;18.836;2023-05-14T06:50:20;12.74;77.89
77693;SHT31;66984;47.404;18.836;2023-05-14T06:51:24;12.75;77.77
77693;SHT31;66984;47.404;18.836;2023-05-14T06:52:26;12.77;77.64
77693;SHT31;66984;47.404;18.836;2023-05-14T06:53:29;12.75;77.68